createdAt,value
2023-01-15T00:02:19.975Z,9.20
2023-01-15T00:05:24.263Z,8.90
2023-01-15T00:08:28.572Z,8.90
2023-01-15T00:11:33.347Z,9.00
2023-01-15T00:14:37.885Z,9.10
2023-01-15T00:17:42.189Z,8.80
2023-01-15T00:20:47.539Z,8.90
2023-01-15T00:24:10.922Z,9.20
2023-01-15T00:27:33.764Z,8.80
2023-01-15T00:30:41.977Z,9.00
2023-01-15T00:33:46.261Z,8.80
2023-01-15T00:36:50.727Z,8.20
2023-01-15T00:39:55.192Z,7.70
2023-01-15T00:42:59.536Z,7.60
2023-01-15T00:46:05.380Z,7.50
2023-01-15T00:49:09.885Z,7.70
2023-01-15T00:52:14.418Z,7.20
2023-01-15T00:55:19.038Z,7.60
2023-01-15T00:58:23.738Z,7.30
2023-01-15T01:01:28.209Z,7.30
2023-01-15T01:04:32.713Z,7.50
2023-01-15T01:07:36.991Z,7.30
2023-01-15T01:10:41.606Z,7.20
2023-01-15T01:13:46.634Z,7.10
2023-01-15T01:16:50.908Z,7.10
2023-01-15T01:19:55.118Z,7.10
2023-01-15T01:22:59.675Z,7.00
2023-01-15T01:26:04.007Z,6.90
2023-01-15T01:29:08.700Z,6.90
2023-01-15T01:32:13.632Z,6.80
2023-01-15T01:35:17.863Z,6.70
2023-01-15T01:38:22.277Z,6.60
2023-01-15T01:41:27.747Z,6.60
2023-01-15T01:44:32.238Z,6.60
2023-01-15T01:47:38.516Z,6.60
2023-01-15T01:50:43.688Z,6.50
2023-01-15T01:53:48.145Z,6.50
2023-01-15T01:56:53.230Z,6.50
2023-01-15T01:59:59.458Z,6.50
2023-01-15T02:03:06.895Z,6.50
2023-01-15T02:06:14.260Z,6.40
2023-01-15T02:09:18.754Z,6.40
2023-01-15T02:12:35.156Z,6.40
2023-01-15T02:15:45.577Z,6.30
2023-01-15T02:19:01.244Z,6.30
2023-01-15T02:22:33.869Z,6.30
2023-01-15T02:25:57.126Z,6.30
2023-01-15T02:29:03.038Z,6.20
2023-01-15T02:32:33.279Z,6.10
2023-01-15T02:35:54.782Z,6.10
2023-01-15T02:39:05.571Z,6.00
2023-01-15T02:42:12.816Z,6.00
2023-01-15T02:45:30.087Z,6.00
2023-01-15T02:48:41.449Z,6.00
2023-01-15T02:51:52.354Z,6.00
2023-01-15T02:55:11.096Z,6.00
2023-01-15T02:58:33.077Z,6.00
2023-01-15T03:01:51.258Z,6.00
2023-01-15T03:05:18.534Z,6.00
2023-01-15T03:08:25.427Z,6.00
2023-01-15T03:11:34.554Z,6.00
2023-01-15T03:14:52.445Z,6.00
2023-01-15T03:17:57.328Z,6.00
2023-01-15T03:21:06.693Z,6.00
2023-01-15T03:24:13.223Z,6.00
2023-01-15T03:27:19.301Z,5.90
2023-01-15T03:30:28.836Z,5.90
2023-01-15T03:33:34.321Z,6.00
2023-01-15T03:36:40.296Z,5.90
2023-01-15T03:39:45.086Z,5.90
2023-01-15T03:43:24.815Z,6.00
2023-01-15T03:47:05.100Z,5.90
2023-01-15T03:50:35.958Z,6.00
2023-01-15T03:53:53.611Z,5.90
2023-01-15T03:57:11.938Z,6.00
2023-01-15T04:00:22.049Z,6.00
2023-01-15T04:03:32.539Z,6.00
2023-01-15T04:06:40.131Z,6.00
2023-01-15T04:09:44.665Z,6.00
2023-01-15T04:12:50.286Z,6.00
2023-01-15T04:15:56.816Z,6.00
2023-01-15T04:19:02.847Z,6.00
2023-01-15T04:22:11.374Z,6.10
2023-01-15T04:25:15.668Z,6.10
2023-01-15T04:28:20.146Z,6.10
2023-01-15T04:31:24.445Z,6.10
2023-01-15T04:34:29.324Z,6.10
2023-01-15T04:37:33.178Z,6.20
2023-01-15T04:40:56.132Z,6.20
2023-01-15T04:44:06.536Z,6.10
2023-01-15T04:47:10.871Z,6.10
2023-01-15T04:50:15.921Z,6.10
2023-01-15T04:53:20.790Z,6.10
2023-01-15T04:56:25.396Z,6.10
2023-01-15T04:59:29.889Z,6.20
2023-01-15T05:02:34.278Z,6.20
2023-01-15T05:05:38.480Z,6.10
2023-01-15T05:08:43.103Z,6.10
2023-01-15T05:11:47.609Z,6.10
2023-01-15T05:14:52.033Z,6.10
2023-01-15T05:17:56.946Z,6.10
2023-01-15T05:21:01.114Z,6.10
2023-01-15T05:24:08.740Z,6.10
2023-01-15T05:27:13.452Z,6.10
2023-01-15T05:30:18.288Z,6.10
2023-01-15T05:33:22.807Z,6.00
2023-01-15T05:36:30.660Z,6.00
2023-01-15T05:39:35.221Z,6.00
2023-01-15T05:42:39.573Z,5.90
2023-01-15T05:45:44.186Z,5.90
2023-01-15T05:48:49.137Z,5.90
2023-01-15T05:51:55.216Z,5.90
2023-01-15T05:55:00.131Z,5.80
2023-01-15T05:58:04.492Z,5.90
2023-01-15T06:01:09.859Z,5.80
2023-01-15T06:04:14.631Z,5.90
2023-01-15T06:07:18.999Z,5.90
2023-01-15T06:10:23.553Z,5.90
2023-01-15T06:13:28.033Z,5.90
2023-01-15T06:16:33.058Z,5.90
2023-01-15T06:19:37.703Z,5.90
2023-01-15T06:22:42.200Z,5.90
2023-01-15T06:25:46.640Z,5.80
2023-01-15T06:28:51.792Z,5.80
2023-01-15T06:31:56.396Z,5.80
2023-01-15T06:35:00.795Z,5.80
2023-01-15T06:38:05.061Z,5.80
2023-01-15T06:41:32.077Z,5.90
2023-01-15T06:44:54.971Z,5.90
2023-01-15T06:47:59.274Z,5.90
2023-01-15T06:51:03.767Z,6.00
2023-01-15T06:54:08.100Z,5.90
2023-01-15T06:57:12.538Z,6.00
2023-01-15T07:00:17.327Z,6.00
2023-01-15T07:03:22.788Z,6.00
2023-01-15T07:06:26.974Z,6.00
2023-01-15T07:09:31.450Z,5.90
2023-01-15T07:12:35.897Z,5.90
2023-01-15T07:15:40.189Z,5.90
2023-01-15T07:18:44.407Z,5.90
2023-01-15T07:21:49.044Z,5.90
2023-01-15T07:24:53.593Z,5.90
2023-01-15T07:27:58.166Z,5.80
2023-01-15T07:31:02.632Z,5.90
2023-01-15T07:34:06.789Z,5.90
2023-01-15T07:37:11.626Z,5.90
2023-01-15T07:40:16.465Z,6.00
2023-01-15T07:43:39.293Z,6.00
2023-01-15T07:47:02.231Z,6.00
2023-01-15T07:50:09.859Z,6.00
2023-01-15T07:53:14.396Z,6.00
2023-01-15T07:56:19.187Z,6.00
2023-01-15T07:59:25.105Z,6.10
2023-01-15T08:02:29.498Z,6.10
2023-01-15T08:05:33.861Z,6.10
2023-01-15T08:08:38.434Z,6.10
2023-01-15T08:12:01.214Z,6.10
2023-01-15T08:15:16.449Z,6.10
2023-01-15T08:18:20.655Z,6.10
2023-01-15T08:21:25.122Z,6.10
2023-01-15T08:24:29.907Z,6.10
2023-01-15T08:27:34.525Z,6.10
2023-01-15T08:30:38.867Z,6.10
2023-01-15T08:33:43.309Z,6.10
2023-01-15T08:36:49.615Z,6.10
2023-01-15T08:39:54.161Z,6.10
2023-01-15T08:42:58.695Z,6.10
2023-01-15T08:46:04.909Z,6.10
2023-01-15T08:49:10.693Z,6.10
2023-01-15T08:52:14.998Z,6.10
2023-01-15T08:55:19.301Z,6.10
2023-01-15T08:58:23.770Z,6.10
2023-01-15T09:01:28.369Z,6.10
2023-01-15T09:04:32.615Z,6.10
2023-01-15T09:07:37.258Z,6.10
2023-01-15T09:10:41.555Z,6.10
2023-01-15T09:13:50.282Z,6.10
2023-01-15T09:16:54.721Z,5.90
2023-01-15T09:19:59.705Z,5.20
2023-01-15T09:23:04.240Z,5.00
2023-01-15T09:26:21.373Z,5.20
2023-01-15T09:29:25.482Z,5.60
2023-01-15T09:32:30.021Z,5.90
2023-01-15T09:35:34.392Z,6.00
2023-01-15T09:38:38.824Z,5.80
2023-01-15T09:42:10.272Z,5.70
2023-01-15T09:45:47.098Z,5.80
2023-01-15T09:49:21.980Z,5.90
2023-01-15T09:53:06.280Z,6.10
2023-01-15T09:56:20.757Z,6.10
2023-01-15T09:59:35.239Z,6.30
2023-01-15T10:03:05.609Z,6.40
2023-01-15T10:06:23.542Z,6.40
2023-01-15T10:09:35.376Z,6.40
2023-01-15T10:12:40.200Z,6.50
2023-01-15T10:15:47.456Z,6.60
2023-01-15T10:18:53.419Z,7.00
2023-01-15T10:22:06.874Z,7.00
2023-01-15T10:25:17.267Z,7.10
2023-01-15T10:28:58.859Z,7.10
2023-01-15T10:32:24.236Z,6.90
2023-01-15T10:35:58.751Z,7.10
2023-01-15T10:39:27.717Z,7.10
2023-01-15T10:42:52.113Z,7.20
2023-01-15T10:46:00.945Z,7.10
2023-01-15T10:49:15.906Z,7.10
2023-01-15T10:52:27.066Z,7.30
2023-01-15T10:55:43.198Z,7.40
2023-01-15T10:58:58.429Z,7.40
2023-01-15T11:02:13.139Z,7.20
2023-01-15T11:05:21.850Z,7.40
2023-01-15T11:12:24.871Z,7.40
2023-01-15T11:15:47.912Z,7.20
2023-01-15T11:19:12.281Z,8.10
2023-01-15T11:22:19.165Z,7.90
2023-01-15T11:25:29.758Z,8.10
2023-01-15T11:28:43.185Z,8.00
2023-01-15T11:31:47.434Z,8.10
2023-01-15T11:35:02.401Z,7.80
2023-01-15T11:38:14.037Z,7.80
2023-01-15T11:41:24.975Z,7.50
2023-01-15T11:44:47.940Z,7.20
2023-01-15T11:48:14.462Z,6.90
2023-01-15T11:51:19.945Z,6.70
2023-01-15T11:54:26.309Z,6.60
2023-01-15T11:57:33.790Z,6.60
2023-01-15T12:00:46.519Z,6.70
2023-01-15T12:03:51.449Z,7.90
2023-01-15T12:06:56.487Z,7.40
2023-01-15T12:10:14.315Z,7.30
2023-01-15T12:13:23.790Z,7.00
2023-01-15T12:16:41.418Z,6.80
2023-01-15T12:20:03.582Z,6.60
2023-01-15T12:23:42.968Z,6.60
2023-01-15T12:27:02.660Z,6.60
2023-01-15T12:30:13.497Z,6.60
2023-01-15T12:33:40.136Z,6.60
2023-01-15T12:39:59.032Z,6.50
2023-01-15T12:43:22.089Z,6.50
2023-01-15T12:46:30.650Z,6.50
2023-01-15T12:49:51.675Z,6.50
2023-01-15T12:53:04.936Z,6.50
2023-01-15T12:56:34.273Z,6.50
2023-01-15T12:59:46.600Z,6.40
2023-01-15T13:02:54.183Z,6.40
2023-01-15T13:06:02.404Z,6.40
2023-01-15T13:09:32.717Z,6.40
2023-01-15T13:12:37.395Z,6.40
2023-01-15T13:15:51.752Z,6.80
2023-01-15T13:19:05.169Z,6.60
2023-01-15T13:22:22.230Z,6.60
2023-01-15T13:25:40.837Z,6.60
2023-01-15T13:28:57.308Z,6.60
2023-01-15T13:32:16.688Z,6.70
2023-01-15T13:35:29.798Z,7.70
2023-01-15T13:38:43.882Z,7.00
2023-01-15T13:42:10.340Z,6.60
2023-01-15T13:45:33.509Z,6.50
2023-01-15T13:48:37.998Z,6.40
2023-01-15T13:51:43.311Z,6.40
2023-01-15T13:54:47.996Z,6.30
2023-01-15T13:57:52.272Z,6.30
2023-01-15T14:01:22.366Z,6.30
2023-01-15T14:04:37.592Z,6.30
2023-01-15T14:07:42.259Z,6.50
2023-01-15T14:10:48.690Z,6.30
2023-01-15T14:14:22.250Z,6.30
2023-01-15T14:18:00.955Z,6.30
2023-01-15T14:21:20.508Z,6.30
2023-01-15T14:24:50.028Z,6.30
2023-01-15T14:28:26.921Z,6.20
2023-01-15T14:32:07.831Z,6.20
2023-01-15T14:35:18.489Z,6.20
2023-01-15T14:38:27.761Z,6.20
2023-01-15T14:41:55.900Z,6.20
2023-01-15T14:45:04.904Z,6.10
2023-01-15T14:48:27.956Z,6.10
2023-01-15T14:51:45.611Z,6.10
2023-01-15T14:54:51.787Z,6.10
2023-01-15T14:58:04.891Z,6.10
2023-01-15T15:01:51.235Z,6.10
2023-01-15T15:04:56.934Z,6.10
2023-01-15T15:08:02.645Z,6.10
2023-01-15T15:11:39.061Z,6.10
2023-01-15T15:14:48.031Z,6.10
2023-01-15T15:18:08.331Z,6.00
2023-01-15T15:21:25.735Z,5.90
2023-01-15T15:24:34.958Z,5.90
2023-01-15T15:27:39.350Z,5.90
2023-01-15T15:30:46.029Z,5.90
2023-01-15T15:33:50.504Z,5.90
2023-01-15T15:36:57.079Z,5.90
2023-01-15T15:40:15.446Z,6.00
2023-01-15T15:43:58.771Z,6.00
2023-01-15T15:47:40.694Z,5.90
2023-01-15T15:50:48.150Z,5.90
2023-01-15T15:54:10.308Z,5.20
2023-01-15T15:57:18.698Z,5.00
2023-01-15T16:00:38.387Z,5.40
2023-01-15T16:03:49.041Z,5.40
2023-01-15T16:06:53.275Z,4.70
2023-01-15T16:10:00.802Z,4.60
2023-01-15T16:13:07.501Z,4.50
2023-01-15T16:16:13.685Z,4.60
2023-01-15T16:19:22.686Z,4.30
2023-01-15T16:22:26.746Z,4.60
2023-01-15T16:25:41.478Z,4.60
2023-01-15T16:28:55.213Z,4.50
2023-01-15T16:32:00.334Z,4.80
2023-01-15T16:35:16.566Z,4.80
2023-01-15T16:38:21.009Z,4.70
2023-01-15T16:41:38.662Z,4.80
2023-01-15T16:44:52.380Z,4.90
2023-01-15T16:48:08.570Z,4.80
2023-01-15T16:51:42.895Z,4.80
2023-01-15T16:54:47.465Z,4.80
2023-01-15T16:58:14.563Z,4.90
2023-01-15T17:01:43.888Z,4.90
2023-01-15T17:04:49.039Z,5.00
2023-01-15T17:07:54.789Z,5.00
2023-01-15T17:11:01.427Z,5.10
2023-01-15T17:14:30.356Z,5.10
2023-01-15T17:17:34.703Z,5.20
2023-01-15T17:20:39.216Z,5.20
2023-01-15T17:23:45.307Z,5.20
2023-01-15T17:26:49.546Z,5.30
2023-01-15T17:29:54.242Z,5.20
2023-01-15T17:32:59.400Z,5.10
2023-01-15T17:36:04.459Z,4.90
2023-01-15T17:39:13.037Z,4.90
2023-01-15T17:42:19.207Z,5.20
2023-01-15T17:45:25.057Z,4.80
2023-01-15T17:48:29.725Z,5.40
2023-01-15T17:51:34.408Z,6.30
2023-01-15T17:54:56.894Z,6.50
2023-01-15T17:58:19.724Z,6.50
2023-01-15T18:01:44.738Z,6.50
2023-01-15T18:05:12.125Z,6.50
2023-01-15T18:08:18.712Z,6.50
2023-01-15T18:11:23.426Z,6.60
2023-01-15T18:14:27.654Z,6.80
2023-01-15T18:17:32.090Z,6.60
2023-01-15T18:20:36.181Z,6.90
2023-01-15T18:23:40.763Z,7.00
2023-01-15T18:26:45.168Z,7.00
2023-01-15T18:29:49.519Z,7.10
2023-01-15T18:32:53.956Z,7.20
2023-01-15T18:36:07.130Z,7.40
2023-01-15T18:39:13.257Z,7.30
2023-01-15T18:42:17.460Z,7.40
2023-01-15T18:45:40.340Z,7.50
2023-01-15T18:48:44.645Z,7.40
2023-01-15T18:52:11.835Z,7.30
2023-01-15T18:55:26.510Z,7.40
2023-01-15T18:58:31.042Z,7.40
2023-01-15T19:01:35.439Z,7.50
2023-01-15T19:04:40.279Z,7.60
2023-01-15T19:07:45.744Z,7.80
2023-01-15T19:10:50.155Z,7.90
2023-01-15T19:14:13.463Z,8.00
2023-01-15T19:17:42.050Z,8.00
2023-01-15T19:20:46.713Z,8.10
2023-01-15T19:23:51.651Z,8.20
2023-01-15T19:26:56.025Z,8.20
2023-01-15T19:30:00.472Z,8.30
2023-01-15T19:33:06.098Z,8.30
2023-01-15T19:36:10.587Z,8.40
2023-01-15T19:39:17.590Z,8.40
2023-01-15T19:42:40.607Z,8.40
2023-01-15T19:46:04.270Z,8.40
2023-01-15T19:49:37.101Z,8.20
2023-01-15T19:52:41.606Z,8.30
2023-01-15T19:55:46.203Z,8.40
2023-01-15T19:58:50.244Z,8.30
2023-01-15T20:01:54.613Z,8.40
2023-01-15T20:04:59.071Z,8.40
2023-01-15T20:08:03.407Z,8.40
2023-01-15T20:11:09.460Z,8.40
2023-01-15T20:14:13.820Z,8.40
2023-01-15T20:17:18.013Z,8.50
2023-01-15T20:20:22.751Z,8.50
2023-01-15T20:23:26.979Z,8.50
2023-01-15T20:26:31.296Z,8.50
2023-01-15T20:29:35.630Z,8.60
2023-01-15T20:32:42.833Z,8.50
2023-01-15T20:35:48.831Z,8.50
2023-01-15T20:38:53.163Z,8.30
2023-01-15T20:42:30.648Z,8.30
2023-01-15T20:45:35.511Z,8.50
2023-01-15T20:48:58.707Z,8.50
2023-01-15T20:52:03.133Z,8.50
2023-01-15T20:55:08.070Z,8.50
2023-01-15T20:58:12.268Z,8.20
2023-01-15T21:01:16.718Z,8.20
2023-01-15T21:04:21.414Z,8.10
2023-01-15T21:07:25.948Z,8.00
2023-01-15T21:10:30.320Z,7.80
2023-01-15T21:13:34.610Z,7.80
2023-01-15T21:16:39.165Z,7.80
2023-01-15T21:19:43.538Z,7.80
2023-01-15T21:22:48.014Z,7.70
2023-01-15T21:25:59.611Z,7.70
2023-01-15T21:29:04.007Z,7.70
2023-01-15T21:32:08.485Z,7.60
2023-01-15T21:35:12.736Z,7.50
2023-01-15T21:38:17.023Z,7.50
2023-01-15T21:41:45.063Z,7.40
2023-01-15T21:44:49.449Z,7.30
2023-01-15T21:47:53.705Z,7.20
2023-01-15T21:50:58.347Z,7.20
2023-01-15T21:54:02.832Z,7.10
2023-01-15T21:57:08.341Z,7.10
2023-01-15T22:00:13.357Z,7.10
2023-01-15T22:03:18.103Z,7.00
2023-01-15T22:06:22.845Z,7.00
2023-01-15T22:09:27.745Z,7.00
2023-01-15T22:12:37.294Z,7.10
2023-01-15T22:15:41.800Z,7.10
2023-01-15T22:18:45.855Z,7.10
2023-01-15T22:21:52.062Z,7.10
2023-01-15T22:24:56.792Z,7.10
2023-01-15T22:28:01.142Z,7.10
2023-01-15T22:31:06.523Z,6.90
2023-01-15T22:34:11.197Z,6.80
2023-01-15T22:37:15.619Z,6.70
2023-01-15T22:40:20.055Z,6.70
2023-01-15T22:43:24.478Z,6.60
2023-01-15T22:46:28.882Z,6.60
2023-01-15T22:49:33.363Z,6.50
2023-01-15T22:52:39.097Z,6.40
2023-01-15T22:55:43.829Z,6.40
2023-01-15T22:58:48.414Z,6.40
2023-01-15T23:01:52.570Z,6.40
2023-01-15T23:04:56.942Z,6.40
2023-01-15T23:08:01.525Z,6.40
2023-01-15T23:11:13.689Z,6.30
2023-01-15T23:14:19.472Z,6.20
2023-01-15T23:17:23.982Z,6.00
2023-01-15T23:20:28.334Z,5.90
2023-01-15T23:23:32.806Z,5.90
2023-01-15T23:26:37.355Z,5.80
2023-01-15T23:29:41.877Z,5.80
2023-01-15T23:32:46.227Z,5.70
2023-01-15T23:35:50.877Z,5.70
2023-01-15T23:38:55.358Z,5.70
2023-01-15T23:42:18.293Z,5.70
2023-01-15T23:45:41.223Z,5.70
2023-01-15T23:48:45.617Z,5.70
2023-01-15T23:51:50.092Z,5.70
2023-01-15T23:54:54.685Z,5.60
2023-01-15T23:57:59.108Z,5.70
